Time;durP1;ratioP1;P1;durP2;ratioP2;P2;SDS_P1;SDS_P2;PMS_P1;PMS_P2;Temp;Humidity;BMP_temperature;BMP_pressure;BME280_temperature;BME280_humidity;BME280_pressure;Samples;Min_cycle;Max_cycle;Signal;HPM_P1;HPM_P2
2023/06/17 00:01:15;;;;;;;;;21.25;18.50;;;;;;;;5091838;27;48365;-72
2023/06/17 00:03:41;;;;;;;;;23.50;22.00;;;;;;;;5089780;27;45451;-72
2023/06/17 00:06:06;;;;;;;;;22.00;20.00;;;;;;;;5095783;27;45760;-72
2023/06/17 00:08:31;;;;;;;;;20.00;19.33;;;;;;;;5089426;27;47272;-72
2023/06/17 00:10:56;;;;;;;;;25.00;22.33;;;;;;;;5100334;27;45392;-73
2023/06/17 00:13:22;;;;;;;;;20.67;18.67;;;;;;;;5086486;27;45383;-72
2023/06/17 00:15:56;;;;;;;;;22.75;21.00;;;;;;;;5095984;27;45440;-73
2023/06/17 00:18:24;;;;;;;;;19.25;18.25;;;;;;;;5102080;27;45475;-72
2023/06/17 00:20:52;;;;;;;;;22.50;20.50;;;;;;;;5081057;27;45531;-72
2023/06/17 00:23:18;;;;;;;;;21.75;21.50;;;;;;;;5086889;27;45283;-72
2023/06/17 00:25:43;;;;;;;;;18.75;18.25;;;;;;;;5087971;27;45416;-72
2023/06/17 00:28:08;;;;;;;;;21.00;19.00;;;;;;;;5093080;27;45264;-72
2023/06/17 00:30:33;;;;;;;;;18.67;18.33;;;;;;;;5086554;27;46132;-72
2023/06/17 00:32:58;;;;;;;;;18.33;17.33;;;;;;;;5087811;27;45344;-73
2023/06/17 00:35:24;;;;;;;;;22.33;20.67;;;;;;;;5083812;27;45396;-73
2023/06/17 00:37:49;;;;;;;;;21.00;17.00;;;;;;;;5094755;27;45352;-73
2023/06/17 00:40:14;;;;;;;;;20.00;19.33;;;;;;;;5087858;27;45424;-72
2023/06/17 00:42:39;;;;;;;;;19.00;17.67;;;;;;;;5087874;27;45361;-72
2023/06/17 00:45:05;;;;;;;;;17.00;17.00;;;;;;;;5093663;27;45805;-72
2023/06/17 00:47:31;;;;;;;;;20.50;18.50;;;;;;;;5082635;27;45477;-73
2023/06/17 00:49:56;;;;;;;;;19.00;18.75;;;;;;;;5093021;27;46419;-72
2023/06/17 00:52:22;;;;;;;;;22.25;20.50;;;;;;;;5081699;27;45422;-72
2023/06/17 00:54:47;;;;;;;;;22.00;20.00;;;;;;;;5100312;27;45402;-73
2023/06/17 00:57:13;;;;;;;;;20.75;20.00;;;;;;;;5099207;27;45483;-72
2023/06/17 00:59:39;;;;;;;;;21.25;19.00;;;;;;;;5086354;27;47012;-72
2023/06/17 01:02:06;;;;;;;;;20.75;19.50;;;;;;;;5100418;27;45320;-72
2023/06/17 01:04:31;;;;;;;;;18.25;17.25;;;;;;;;5089785;27;45317;-72
2023/06/17 01:07:09;;;;;;;;;20.75;19.75;;;;;;;;5091262;27;45471;-72
2023/06/17 01:09:37;;;;;;;;;22.25;19.50;;;;;;;;5092820;27;47078;-72
2023/06/17 01:12:03;;;;;;;;;21.00;18.50;;;;;;;;5080458;27;45836;-72
2023/06/17 01:14:30;;;;;;;;;21.25;19.00;;;;;;;;5098280;27;45230;-72
2023/06/17 01:16:55;;;;;;;;;22.75;20.00;;;;;;;;5091235;27;46783;-73
2023/06/17 01:19:22;;;;;;;;;19.00;17.25;;;;;;;;5092974;27;45420;-72
2023/06/17 01:21:53;;;;;;;;;15.50;13.50;;;;;;;;5088758;27;45801;-72
2023/06/17 01:24:28;;;;;;;;;16.00;15.25;;;;;;;;5096608;27;45317;-72
2023/06/17 01:27:00;;;;;;;;;21.00;19.00;;;;;;;;5090835;27;46570;-72
2023/06/17 01:29:32;;;;;;;;;20.75;19.50;;;;;;;;5082472;27;46317;-72
2023/06/17 01:31:58;;;;;;;;;20.25;18.75;;;;;;;;5087194;27;45520;-72
2023/06/17 01:34:34;;;;;;;;;22.25;20.75;;;;;;;;5091508;27;45279;-72
2023/06/17 01:37:01;;;;;;;;;19.00;19.00;;;;;;;;5079261;27;46977;-73
2023/06/17 01:39:27;;;;;;;;;17.75;17.00;;;;;;;;5092914;27;46302;-72
2023/06/17 01:41:53;;;;;;;;;20.25;19.50;;;;;;;;5086060;27;45301;-73
2023/06/17 01:44:19;;;;;;;;;23.00;20.50;;;;;;;;5094603;27;45232;-73
2023/06/17 01:46:44;;;;;;;;;24.75;24.00;;;;;;;;5092259;27;45642;-72
2023/06/17 01:49:10;;;;;;;;;24.33;21.67;;;;;;;;5080200;27;45488;-72
2023/06/17 01:51:35;;;;;;;;;28.75;26.25;;;;;;;;5085100;27;45403;-72
2023/06/17 01:54:00;;;;;;;;;18.75;16.00;;;;;;;;5098755;27;45307;-72
2023/06/17 01:56:25;;;;;;;;;30.25;27.50;;;;;;;;5100317;27;45532;-72
2023/06/17 01:58:51;;;;;;;;;26.33;26.00;;;;;;;;5086777;27;46232;-72
2023/06/17 02:01:16;;;;;;;;;27.33;26.33;;;;;;;;5093274;27;45333;-72
2023/06/17 02:03:42;;;;;;;;;31.00;29.00;;;;;;;;5094560;27;45432;-72
2023/06/17 02:06:07;;;;;;;;;28.00;25.50;;;;;;;;5085577;27;45369;-72
2023/06/17 02:08:34;;;;;;;;;29.25;28.75;;;;;;;;5094756;27;45344;-72
2023/06/17 02:10:59;;;;;;;;;29.75;25.75;;;;;;;;5085437;27;45540;-72
2023/06/17 02:13:24;;;;;;;;;31.33;27.67;;;;;;;;5088548;27;45220;-72
2023/06/17 02:15:50;;;;;;;;;29.67;26.67;;;;;;;;5099634;27;45356;-72
2023/06/17 02:18:15;;;;;;;;;30.67;29.00;;;;;;;;5097850;27;46664;-72
2023/06/17 02:20:40;;;;;;;;;25.67;25.67;;;;;;;;5090315;27;45297;-72
2023/06/17 02:23:05;;;;;;;;;28.67;27.00;;;;;;;;5087647;27;45274;-72
2023/06/17 02:25:30;;;;;;;;;26.67;26.67;;;;;;;;5098888;27;45711;-72
2023/06/17 02:27:55;;;;;;;;;23.00;21.00;;;;;;;;5100103;27;45153;-72
2023/06/17 02:30:21;;;;;;;;;22.67;20.00;;;;;;;;5085206;27;45785;-72
2023/06/17 02:32:46;;;;;;;;;26.75;26.00;;;;;;;;5091410;27;45176;-72
2023/06/17 02:35:11;;;;;;;;;28.00;26.00;;;;;;;;5097803;27;45186;-72
2023/06/17 02:37:37;;;;;;;;;26.00;25.00;;;;;;;;5085300;27;46560;-72
2023/06/17 02:40:06;;;;;;;;;26.00;25.50;;;;;;;;5090665;27;45241;-72
2023/06/17 02:42:31;;;;;;;;;26.50;24.50;;;;;;;;5093112;27;45388;-72
2023/06/17 02:44:56;;;;;;;;;24.00;21.75;;;;;;;;5089360;27;45325;-72
2023/06/17 02:47:21;;;;;;;;;26.67;25.33;;;;;;;;5096540;27;45729;-72
2023/06/17 02:49:47;;;;;;;;;23.67;22.33;;;;;;;;5094842;27;45513;-73
2023/06/17 02:52:12;;;;;;;;;25.00;24.33;;;;;;;;5087768;27;45361;-72
2023/06/17 02:54:37;;;;;;;;;31.67;29.33;;;;;;;;5098175;27;45230;-72
2023/06/17 02:57:02;;;;;;;;;27.33;26.00;;;;;;;;5089779;27;45518;-72
2023/06/17 02:59:27;;;;;;;;;27.25;26.50;;;;;;;;5089910;27;45321;-72
2023/06/17 03:01:53;;;;;;;;;26.67;26.00;;;;;;;;5102177;27;45481;-72
2023/06/17 03:04:21;;;;;;;;;28.33;25.33;;;;;;;;5099941;27;46343;-72
2023/06/17 03:06:46;;;;;;;;;25.25;24.00;;;;;;;;5088958;27;45305;-72
2023/06/17 03:09:11;;;;;;;;;25.33;25.00;;;;;;;;5093481;27;45360;-72
2023/06/17 03:11:36;;;;;;;;;26.00;23.75;;;;;;;;5096993;27;45219;-72
2023/06/17 03:14:02;;;;;;;;;26.00;23.00;;;;;;;;5086862;27;45235;-72
2023/06/17 03:16:33;;;;;;;;;23.50;22.50;;;;;;;;5096018;27;46519;-71
2023/06/17 03:18:58;;;;;;;;;26.50;24.75;;;;;;;;5084357;27;45353;-72
2023/06/17 03:21:24;;;;;;;;;23.25;22.25;;;;;;;;5095725;27;45325;-72
2023/06/17 03:23:50;;;;;;;;;25.00;23.75;;;;;;;;5086033;27;45586;-72
2023/06/17 03:26:16;;;;;;;;;23.25;19.50;;;;;;;;5094776;27;47482;-72
2023/06/17 03:28:41;;;;;;;;;25.75;23.25;;;;;;;;5091071;27;45275;-72
2023/06/17 03:31:06;;;;;;;;;27.75;23.50;;;;;;;;5085394;27;45246;-72
2023/06/17 03:33:32;;;;;;;;;27.50;25.50;;;;;;;;5098442;27;45535;-72
2023/06/17 03:35:57;;;;;;;;;26.00;22.75;;;;;;;;5097282;27;48049;-72
2023/06/17 03:38:22;;;;;;;;;21.67;20.00;;;;;;;;5089121;27;45242;-72
2023/06/17 03:40:47;;;;;;;;;22.75;22.00;;;;;;;;5095008;27;45380;-72
2023/06/17 03:43:13;;;;;;;;;21.67;21.67;;;;;;;;5091355;27;45402;-72
2023/06/17 03:45:39;;;;;;;;;25.00;24.25;;;;;;;;5092340;27;47010;-72
2023/06/17 03:48:05;;;;;;;;;23.25;22.00;;;;;;;;5088807;27;45262;-72
2023/06/17 03:50:30;;;;;;;;;24.00;22.50;;;;;;;;5088280;27;45730;-72
2023/06/17 03:52:56;;;;;;;;;23.50;21.25;;;;;;;;5100591;27;46129;-72
2023/06/17 03:55:22;;;;;;;;;20.00;19.33;;;;;;;;5086860;27;48149;-71
2023/06/17 03:57:47;;;;;;;;;23.00;21.75;;;;;;;;5093177;27;45495;-72
2023/06/17 04:00:15;;;;;;;;;22.00;20.75;;;;;;;;5094307;27;45254;-71
2023/06/17 04:02:44;;;;;;;;;20.25;19.00;;;;;;;;5093999;27;45475;-72
2023/06/17 04:05:10;;;;;;;;;21.00;20.75;;;;;;;;5089027;27;47076;-72
2023/06/17 04:07:38;;;;;;;;;24.33;24.00;;;;;;;;5095985;27;45258;-72
2023/06/17 04:10:03;;;;;;;;;22.50;20.75;;;;;;;;5097366;27;45719;-71
2023/06/17 04:12:28;;;;;;;;;21.75;21.00;;;;;;;;5091314;27;45345;-72
2023/06/17 04:14:54;;;;;;;;;22.33;21.00;;;;;;;;5096969;27;45676;-71
2023/06/17 04:17:19;;;;;;;;;26.50;24.75;;;;;;;;5092743;27;45302;-72
2023/06/17 04:19:45;;;;;;;;;22.33;20.33;;;;;;;;5099322;27;45267;-72
2023/06/17 04:22:10;;;;;;;;;20.00;20.00;;;;;;;;5088294;27;46698;-71
2023/06/17 04:24:37;;;;;;;;;21.33;19.67;;;;;;;;5094180;27;45289;-72
2023/06/17 04:27:05;;;;;;;;;20.75;19.75;;;;;;;;5093883;27;45229;-72
2023/06/17 04:29:34;;;;;;;;;21.25;18.00;;;;;;;;5096134;27;45377;-71
2023/06/17 04:32:01;;;;;;;;;21.00;19.75;;;;;;;;5093715;27;46799;-71
2023/06/17 04:34:26;;;;;;;;;21.75;20.50;;;;;;;;5091566;27;46364;-71
2023/06/17 04:36:57;;;;;;;;;19.00;19.00;;;;;;;;5089733;27;45234;-71
2023/06/17 04:39:28;;;;;;;;;21.50;18.50;;;;;;;;5095102;27;45314;-71
2023/06/17 04:41:53;;;;;;;;;20.75;19.75;;;;;;;;5090469;27;45480;-71
2023/06/17 04:44:18;;;;;;;;;20.33;19.67;;;;;;;;5096152;27;46531;-71
2023/06/17 04:46:44;;;;;;;;;21.00;19.75;;;;;;;;5086481;27;45982;-72
2023/06/17 04:49:10;;;;;;;;;20.75;19.25;;;;;;;;5084837;27;45338;-71
2023/06/17 04:51:38;;;;;;;;;22.00;20.75;;;;;;;;5084640;27;45352;-71
2023/06/17 04:54:05;;;;;;;;;18.00;17.25;;;;;;;;5100040;27;46152;-72
2023/06/17 04:56:30;;;;;;;;;20.25;19.25;;;;;;;;5095508;27;46122;-72
2023/06/17 04:58:55;;;;;;;;;20.25;17.50;;;;;;;;5092217;27;45483;-71
2023/06/17 05:01:21;;;;;;;;;19.67;18.00;;;;;;;;5085983;27;45725;-72
2023/06/17 05:03:46;;;;;;;;;21.00;20.33;;;;;;;;5095156;27;45491;-72
2023/06/17 05:06:11;;;;;;;;;20.75;17.75;;;;;;;;5090467;27;45204;-72
2023/06/17 05:08:36;;;;;;;;;18.33;17.67;;;;;;;;5095851;27;45181;-72
2023/06/17 05:11:02;;;;;;;;;17.67;17.33;;;;;;;;5089601;27;46005;-71
2023/06/17 05:13:27;;;;;;;;;17.67;15.00;;;;;;;;5096935;27;45342;-71
2023/06/17 05:15:52;;;;;;;;;17.00;15.33;;;;;;;;5091207;27;45592;-72
2023/06/17 05:18:17;;;;;;;;;15.00;14.00;;;;;;;;5091016;27;45390;-71
2023/06/17 05:20:42;;;;;;;;;13.67;13.00;;;;;;;;5087357;27;46057;-71
2023/06/17 05:23:07;;;;;;;;;15.00;14.33;;;;;;;;5089523;27;45661;-72
2023/06/17 05:25:33;;;;;;;;;14.00;13.00;;;;;;;;5091180;27;45486;-72
2023/06/17 05:27:58;;;;;;;;;16.67;15.00;;;;;;;;5092795;27;45680;-71
2023/06/17 05:30:23;;;;;;;;;17.33;17.00;;;;;;;;5086655;27;46123;-71
2023/06/17 05:32:48;;;;;;;;;14.67;14.33;;;;;;;;5091385;27;45559;-71
2023/06/17 05:35:13;;;;;;;;;13.67;13.00;;;;;;;;5089206;27;45539;-70
2023/06/17 05:37:39;;;;;;;;;14.67;14.00;;;;;;;;5089174;27;45925;-71
2023/06/17 05:40:04;;;;;;;;;15.33;15.00;;;;;;;;5090886;27;45488;-71
2023/06/17 05:42:29;;;;;;;;;13.25;12.50;;;;;;;;5086789;27;47139;-71
2023/06/17 05:44:55;;;;;;;;;16.25;14.50;;;;;;;;5090499;27;45653;-70
2023/06/17 05:47:20;;;;;;;;;13.25;13.00;;;;;;;;5088510;27;45844;-71
2023/06/17 05:49:45;;;;;;;;;13.00;13.00;;;;;;;;5088612;27;45715;-71
2023/06/17 05:52:10;;;;;;;;;14.67;14.67;;;;;;;;5090582;27;45448;-71
2023/06/17 05:54:37;;;;;;;;;8.25;8.25;;;;;;;;5091111;27;45366;-71
2023/06/17 05:57:02;;;;;;;;;12.75;11.75;;;;;;;;5093284;27;45350;-70
2023/06/17 05:59:29;;;;;;;;;16.00;14.00;;;;;;;;5082883;27;45540;-71
2023/06/17 06:01:54;;;;;;;;;12.00;11.75;;;;;;;;5082452;27;45553;-71
2023/06/17 06:04:20;;;;;;;;;12.33;12.33;;;;;;;;5079342;27;45487;-73
2023/06/17 06:06:45;;;;;;;;;12.33;11.00;;;;;;;;5079737;27;45689;-72
2023/06/17 06:09:10;;;;;;;;;12.00;12.00;;;;;;;;5080887;27;46821;-71
2023/06/17 06:11:35;;;;;;;;;13.00;13.00;;;;;;;;5090859;27;45380;-73
2023/06/17 06:14:01;;;;;;;;;12.00;11.50;;;;;;;;5083137;27;46140;-73
2023/06/17 06:16:26;;;;;;;;;14.25;13.75;;;;;;;;5085724;27;45572;-71
2023/06/17 06:18:51;;;;;;;;;12.00;11.00;;;;;;;;5088566;27;45561;-71
2023/06/17 06:21:16;;;;;;;;;14.67;11.67;;;;;;;;5080924;27;48120;-71
2023/06/17 06:23:41;;;;;;;;;13.00;12.00;;;;;;;;5087160;27;45564;-72
2023/06/17 06:26:06;;;;;;;;;14.33;13.00;;;;;;;;5090247;27;45982;-70
2023/06/17 06:28:32;;;;;;;;;15.00;13.33;;;;;;;;5086308;27;45993;-71
2023/06/17 06:30:57;;;;;;;;;13.00;12.33;;;;;;;;5082506;27;46330;-71
2023/06/17 06:33:22;;;;;;;;;13.00;13.00;;;;;;;;5089656;27;45300;-71
2023/06/17 06:35:48;;;;;;;;;12.50;12.50;;;;;;;;5089540;27;45454;-71
2023/06/17 06:38:13;;;;;;;;;15.33;12.33;;;;;;;;5093676;27;45430;-71
2023/06/17 06:40:38;;;;;;;;;12.67;12.00;;;;;;;;5083679;27;45364;-71
2023/06/17 06:43:03;;;;;;;;;13.00;12.67;;;;;;;;5088020;27;45295;-71
2023/06/17 06:45:28;;;;;;;;;14.00;13.00;;;;;;;;5090850;27;45527;-71
2023/06/17 06:47:53;;;;;;;;;11.00;11.00;;;;;;;;5090699;27;45153;-71
2023/06/17 06:50:19;;;;;;;;;13.33;11.67;;;;;;;;5089817;27;46492;-71
2023/06/17 06:52:45;;;;;;;;;13.75;12.50;;;;;;;;5091385;27;45241;-71
2023/06/17 06:55:10;;;;;;;;;13.00;13.00;;;;;;;;5086198;27;45269;-71
2023/06/17 06:57:35;;;;;;;;;12.50;12.25;;;;;;;;5090951;27;45360;-71
2023/06/17 07:00:00;;;;;;;;;13.33;10.33;;;;;;;;5086547;27;46620;-71
2023/06/17 07:02:26;;;;;;;;;11.67;11.00;;;;;;;;5095969;27;45302;-71
2023/06/17 07:04:51;;;;;;;;;11.00;11.00;;;;;;;;5090163;27;45472;-71
2023/06/17 07:07:17;;;;;;;;;11.50;11.25;;;;;;;;5086390;27;45550;-71
2023/06/17 07:09:42;;;;;;;;;10.67;10.00;;;;;;;;5086470;27;46173;-71
2023/06/17 07:12:07;;;;;;;;;13.33;12.67;;;;;;;;5092932;27;45305;-71
2023/06/17 07:14:32;;;;;;;;;12.00;12.00;;;;;;;;5091846;27;45491;-71
2023/06/17 07:16:57;;;;;;;;;12.33;12.00;;;;;;;;5080669;27;45348;-71
2023/06/17 07:19:23;;;;;;;;;11.00;11.00;;;;;;;;5090492;27;45428;-71
2023/06/17 07:21:48;;;;;;;;;9.33;8.33;;;;;;;;5079697;27;45454;-71
2023/06/17 07:24:14;;;;;;;;;12.25;12.00;;;;;;;;5086491;27;45326;-71
2023/06/17 07:26:39;;;;;;;;;13.25;11.75;;;;;;;;5092125;27;45658;-71
2023/06/17 07:29:04;;;;;;;;;11.75;10.50;;;;;;;;5096672;27;46264;-71
2023/06/17 07:31:30;;;;;;;;;13.00;12.25;;;;;;;;5082651;27;46780;-71
2023/06/17 07:33:55;;;;;;;;;9.50;8.25;;;;;;;;5091924;27;45439;-71
2023/06/17 07:36:21;;;;;;;;;10.00;10.00;;;;;;;;5090795;27;45414;-71
2023/06/17 07:38:46;;;;;;;;;11.33;10.00;;;;;;;;5088768;27;46712;-72
2023/06/17 07:41:11;;;;;;;;;12.00;11.67;;;;;;;;5093778;27;45302;-71
2023/06/17 07:43:36;;;;;;;;;10.67;10.67;;;;;;;;5086343;27;45287;-71
2023/06/17 07:46:01;;;;;;;;;11.33;10.67;;;;;;;;5088264;27;45463;-71
2023/06/17 07:48:27;;;;;;;;;12.33;12.00;;;;;;;;5086735;27;46257;-71
2023/06/17 07:50:52;;;;;;;;;13.33;13.00;;;;;;;;5095146;27;45532;-71
2023/06/17 07:53:17;;;;;;;;;12.25;11.50;;;;;;;;5097250;27;45264;-71
2023/06/17 07:55:42;;;;;;;;;10.25;10.00;;;;;;;;5093559;27;45550;-71
2023/06/17 07:58:08;;;;;;;;;13.75;12.50;;;;;;;;5081987;27;45452;-71
2023/06/17 08:00:33;;;;;;;;;11.75;10.50;;;;;;;;5097709;27;45716;-71
2023/06/17 08:02:58;;;;;;;;;10.00;9.67;;;;;;;;5097734;27;45444;-71
2023/06/17 08:05:24;;;;;;;;;10.00;10.00;;;;;;;;5093233;27;45420;-71
2023/06/17 08:07:49;;;;;;;;;12.67;12.00;;;;;;;;5088660;27;45396;-71
2023/06/17 08:10:14;;;;;;;;;10.00;10.00;;;;;;;;5099323;27;45670;-71
2023/06/17 08:12:40;;;;;;;;;9.33;9.33;;;;;;;;5081506;27;45649;-71
2023/06/17 08:15:06;;;;;;;;;11.00;10.75;;;;;;;;5085986;27;45488;-71
2023/06/17 08:17:31;;;;;;;;;10.00;10.00;;;;;;;;5093250;27;46284;-71
2023/06/17 08:19:56;;;;;;;;;13.25;12.75;;;;;;;;5084853;27;45512;-71
2023/06/17 08:22:22;;;;;;;;;11.50;11.25;;;;;;;;5087954;27;45394;-71
2023/06/17 08:24:48;;;;;;;;;12.00;11.75;;;;;;;;5090026;27;45427;-71
2023/06/17 08:27:13;;;;;;;;;11.00;10.67;;;;;;;;5087718;27;48096;-71
2023/06/17 08:29:39;;;;;;;;;10.00;10.00;;;;;;;;5090299;27;45698;-71
2023/06/17 08:32:04;;;;;;;;;10.50;10.00;;;;;;;;5083397;27;45556;-71
2023/06/17 08:34:31;;;;;;;;;10.50;9.50;;;;;;;;5093016;27;45462;-71
2023/06/17 08:36:57;;;;;;;;;12.25;11.00;;;;;;;;5086334;27;45585;-71
2023/06/17 08:39:22;;;;;;;;;12.50;12.25;;;;;;;;5089202;27;45964;-71
2023/06/17 08:41:48;;;;;;;;;11.33;11.33;;;;;;;;5090706;27;46673;-71
2023/06/17 08:44:13;;;;;;;;;11.67;11.67;;;;;;;;5087430;27;45496;-71
2023/06/17 08:46:39;;;;;;;;;8.75;7.75;;;;;;;;5095751;27;46055;-71
2023/06/17 08:49:07;;;;;;;;;9.25;8.25;;;;;;;;5094289;27;45181;-71
2023/06/17 08:51:33;;;;;;;;;9.75;9.00;;;;;;;;5096260;27;45491;-71
2023/06/17 08:54:00;;;;;;;;;10.50;9.75;;;;;;;;5098036;27;45632;-71
2023/06/17 08:56:25;;;;;;;;;9.00;9.00;;;;;;;;5096848;27;47229;-71
2023/06/17 08:58:53;;;;;;;;;12.00;12.00;;;;;;;;5089105;27;45358;-71
2023/06/17 09:01:18;;;;;;;;;10.50;10.50;;;;;;;;5089164;27;45180;-71
2023/06/17 09:03:43;;;;;;;;;10.00;10.00;;;;;;;;5091035;27;45307;-71
2023/06/17 09:06:16;;;;;;;;;12.50;12.50;;;;;;;;5091504;27;45396;-71
2023/06/17 09:08:41;;;;;;;;;12.75;12.00;;;;;;;;5087870;27;45350;-71
2023/06/17 09:11:07;;;;;;;;;13.25;12.50;;;;;;;;5101119;27;45217;-71
2023/06/17 09:13:32;;;;;;;;;9.00;9.00;;;;;;;;5087303;27;45499;-71
2023/06/17 09:15:57;;;;;;;;;14.00;12.75;;;;;;;;5091889;27;45998;-71
2023/06/17 09:18:23;;;;;;;;;13.50;12.50;;;;;;;;5092274;27;45236;-71
2023/06/17 09:20:54;;;;;;;;;10.75;10.50;;;;;;;;5099582;27;45272;-71
2023/06/17 09:23:20;;;;;;;;;12.25;12.25;;;;;;;;5093038;27;45377;-71
2023/06/17 09:25:45;;;;;;;;;11.75;11.25;;;;;;;;5093861;27;46207;-71
2023/06/17 09:28:10;;;;;;;;;14.00;13.00;;;;;;;;5092412;27;45235;-71
2023/06/17 09:30:37;;;;;;;;;14.00;14.00;;;;;;;;5094948;27;45307;-71
2023/06/17 09:33:02;;;;;;;;;13.00;13.00;;;;;;;;5086662;27;45448;-71
2023/06/17 09:35:27;;;;;;;;;11.00;10.75;;;;;;;;5087670;27;46937;-71
2023/06/17 09:37:53;;;;;;;;;11.33;11.33;;;;;;;;5085363;27;45258;-71
2023/06/17 09:40:19;;;;;;;;;13.00;12.75;;;;;;;;5094971;27;45422;-71
2023/06/17 09:42:46;;;;;;;;;15.00;15.00;;;;;;;;5093405;27;45280;-71
2023/06/17 09:45:14;;;;;;;;;12.25;11.25;;;;;;;;5090891;27;46185;-71
2023/06/17 09:47:40;;;;;;;;;14.75;13.00;;;;;;;;5089774;27;45624;-71
2023/06/17 09:50:08;;;;;;;;;16.50;14.25;;;;;;;;5080892;27;45595;-71
2023/06/17 09:52:35;;;;;;;;;17.00;16.25;;;;;;;;5085253;27;45453;-71
2023/06/17 09:55:02;;;;;;;;;17.50;15.75;;;;;;;;5084853;27;45516;-71
2023/06/17 09:57:31;;;;;;;;;16.00;15.00;;;;;;;;5084064;27;45306;-71
2023/06/17 09:59:56;;;;;;;;;15.25;14.25;;;;;;;;5084608;27;45236;-71
2023/06/17 10:02:22;;;;;;;;;14.50;13.50;;;;;;;;5084069;27;45563;-71
2023/06/17 10:04:47;;;;;;;;;16.00;15.00;;;;;;;;5088766;27;45656;-71
2023/06/17 10:07:14;;;;;;;;;16.33;15.67;;;;;;;;5090702;27;45384;-71
2023/06/17 10:09:40;;;;;;;;;15.50;15.25;;;;;;;;5084074;27;45481;-71
2023/06/17 10:12:06;;;;;;;;;18.00;16.50;;;;;;;;5096525;27;45390;-71
2023/06/17 10:14:32;;;;;;;;;15.25;14.25;;;;;;;;5084868;27;46660;-71
2023/06/17 10:16:58;;;;;;;;;14.75;14.75;;;;;;;;5079860;27;45371;-71
2023/06/17 10:19:26;;;;;;;;;14.50;14.00;;;;;;;;5086475;27;45468;-71
2023/06/17 10:21:53;;;;;;;;;16.25;15.25;;;;;;;;5078388;27;45610;-71
2023/06/17 10:24:19;;;;;;;;;15.00;15.00;;;;;;;;5082139;27;47526;-71
2023/06/17 10:26:44;;;;;;;;;19.75;17.25;;;;;;;;5085192;27;45282;-71
2023/06/17 10:29:11;;;;;;;;;14.00;14.00;;;;;;;;5089856;27;45282;-71
2023/06/17 10:31:42;;;;;;;;;17.50;16.25;;;;;;;;5082107;27;45586;-71
2023/06/17 10:34:08;;;;;;;;;19.25;18.00;;;;;;;;5079172;27;47212;-71
2023/06/17 10:36:35;;;;;;;;;16.00;15.75;;;;;;;;5090217;27;45273;-71
2023/06/17 10:39:05;;;;;;;;;16.75;16.75;;;;;;;;5091561;27;45277;-71
2023/06/17 10:41:39;;;;;;;;;12.00;11.75;;;;;;;;5083562;27;45639;-71
2023/06/17 10:44:19;;;;;;;;;17.50;16.25;;;;;;;;5086561;27;45474;-71
2023/06/17 10:46:46;;;;;;;;;20.00;18.75;;;;;;;;5086956;27;45447;-71
2023/06/17 10:49:14;;;;;;;;;15.75;15.50;;;;;;;;5089003;27;45472;-71
2023/06/17 10:51:44;;;;;;;;;16.25;15.25;;;;;;;;5086544;27;45804;-71
2023/06/17 10:54:10;;;;;;;;;19.75;17.75;;;;;;;;5083711;27;45480;-71
2023/06/17 10:56:45;;;;;;;;;21.00;20.00;;;;;;;;5092138;27;45503;-71
2023/06/17 10:59:10;;;;;;;;;17.25;16.75;;;;;;;;5090620;27;45438;-71
2023/06/17 11:01:40;;;;;;;;;14.33;14.00;;;;;;;;5089945;27;45420;-71
2023/06/17 11:04:07;;;;;;;;;16.75;15.25;;;;;;;;5097767;27;45748;-71
2023/06/17 11:06:32;;;;;;;;;15.25;14.50;;;;;;;;5088561;27;45278;-71
2023/06/17 11:08:58;;;;;;;;;16.67;16.00;;;;;;;;5089555;27;45194;-71
2023/06/17 11:11:23;;;;;;;;;16.00;16.00;;;;;;;;5094940;27;45293;-72
2023/06/17 11:13:50;;;;;;;;;19.50;19.50;;;;;;;;5094899;27;45632;-71
2023/06/17 11:16:16;;;;;;;;;18.50;17.75;;;;;;;;5089334;27;45522;-71
2023/06/17 11:18:44;;;;;;;;;18.00;17.75;;;;;;;;5096279;27;45526;-71
2023/06/17 11:21:10;;;;;;;;;17.00;15.75;;;;;;;;5098757;27;47308;-71
2023/06/17 11:23:38;;;;;;;;;16.00;14.25;;;;;;;;5098086;27;45410;-71
2023/06/17 11:26:04;;;;;;;;;13.75;13.00;;;;;;;;5086499;27;45434;-71
2023/06/17 11:28:30;;;;;;;;;15.75;15.00;;;;;;;;5093587;27;45277;-71
2023/06/17 11:30:56;;;;;;;;;14.75;14.25;;;;;;;;5082411;27;45249;-71
2023/06/17 11:33:21;;;;;;;;;15.50;13.50;;;;;;;;5092831;27;45378;-71
2023/06/17 11:35:48;;;;;;;;;15.50;14.50;;;;;;;;5094468;27;45285;-71
2023/06/17 11:38:14;;;;;;;;;13.50;13.50;;;;;;;;5096467;27;45555;-71
2023/06/17 11:40:41;;;;;;;;;13.75;12.25;;;;;;;;5087693;27;45303;-71
2023/06/17 11:43:06;;;;;;;;;14.75;14.50;;;;;;;;5085264;27;47215;-71
2023/06/17 11:45:34;;;;;;;;;13.00;12.75;;;;;;;;5085121;27;45492;-71
2023/06/17 11:47:59;;;;;;;;;13.75;13.75;;;;;;;;5089979;27;45440;-71
2023/06/17 11:50:29;;;;;;;;;13.00;12.50;;;;;;;;5091112;27;45915;-71
2023/06/17 11:52:56;;;;;;;;;13.00;13.00;;;;;;;;5094570;27;47682;-71
2023/06/17 11:55:28;;;;;;;;;16.25;15.50;;;;;;;;5098811;27;45458;-71
2023/06/17 11:57:53;;;;;;;;;15.00;13.25;;;;;;;;5092696;27;45360;-71
2023/06/17 12:00:19;;;;;;;;;14.50;12.75;;;;;;;;5086174;27;45451;-71
2023/06/17 12:02:44;;;;;;;;;13.50;13.00;;;;;;;;5098254;27;47268;-72
2023/06/17 12:05:10;;;;;;;;;11.50;10.25;;;;;;;;5092788;27;45321;-71
2023/06/17 12:07:36;;;;;;;;;11.25;11.25;;;;;;;;5090762;27;45260;-71
2023/06/17 12:10:01;;;;;;;;;13.50;13.50;;;;;;;;5094188;27;45462;-71
2023/06/17 12:12:26;;;;;;;;;13.25;13.00;;;;;;;;5094828;27;46327;-72
2023/06/17 12:14:57;;;;;;;;;12.33;11.00;;;;;;;;5097721;27;45624;-72
2023/06/17 12:17:23;;;;;;;;;13.25;12.50;;;;;;;;5088425;27;45260;-71
2023/06/17 12:19:48;;;;;;;;;15.25;15.25;;;;;;;;5095430;27;46230;-71
2023/06/17 12:22:14;;;;;;;;;14.33;14.33;;;;;;;;5097610;27;46635;-71
2023/06/17 12:24:39;;;;;;;;;14.67;14.00;;;;;;;;5097051;27;45383;-71
2023/06/17 12:27:07;;;;;;;;;12.33;12.33;;;;;;;;5088228;27;45421;-72
2023/06/17 12:29:32;;;;;;;;;13.00;12.75;;;;;;;;5088705;27;45223;-72
2023/06/17 12:31:57;;;;;;;;;12.33;11.33;;;;;;;;5091764;27;45338;-72
2023/06/17 12:34:22;;;;;;;;;12.33;12.00;;;;;;;;5079239;27;45226;-71
2023/06/17 12:36:48;;;;;;;;;11.67;11.00;;;;;;;;5087926;27;45574;-72
2023/06/17 12:39:14;;;;;;;;;13.00;11.25;;;;;;;;5090975;27;45911;-72
2023/06/17 12:41:39;;;;;;;;;13.25;12.50;;;;;;;;5099721;27;45331;-72
2023/06/17 12:44:04;;;;;;;;;14.00;12.67;;;;;;;;5088550;27;45432;-71
2023/06/17 12:46:32;;;;;;;;;12.25;12.00;;;;;;;;5093585;27;45363;-72
2023/06/17 12:48:57;;;;;;;;;12.00;12.00;;;;;;;;5093086;27;46518;-72
2023/06/17 12:51:22;;;;;;;;;14.33;14.33;;;;;;;;5087367;27;45530;-72
2023/06/17 12:53:47;;;;;;;;;13.33;12.67;;;;;;;;5093437;27;45661;-72
2023/06/17 12:56:12;;;;;;;;;15.33;15.33;;;;;;;;5098171;27;45478;-72
2023/06/17 12:58:38;;;;;;;;;17.33;16.67;;;;;;;;5099878;27;45374;-71
2023/06/17 13:01:03;;;;;;;;;15.00;15.00;;;;;;;;5087431;27;47259;-71
2023/06/17 13:03:28;;;;;;;;;16.00;15.33;;;;;;;;5099758;27;45287;-72
2023/06/17 13:05:53;;;;;;;;;14.75;13.50;;;;;;;;5081761;27;45479;-72
2023/06/17 13:08:19;;;;;;;;;15.50;14.75;;;;;;;;5083907;27;45267;-71
2023/06/17 13:10:44;;;;;;;;;18.50;16.75;;;;;;;;5093584;27;45640;-72
2023/06/17 13:13:09;;;;;;;;;14.75;14.75;;;;;;;;5097860;27;45424;-72
2023/06/17 13:15:34;;;;;;;;;15.75;15.50;;;;;;;;5090168;27;45478;-72
2023/06/17 13:18:00;;;;;;;;;14.50;14.50;;;;;;;;5083412;27;45433;-72
2023/06/17 13:20:25;;;;;;;;;15.67;15.67;;;;;;;;5078628;27;47610;-72
2023/06/17 13:22:50;;;;;;;;;16.25;15.75;;;;;;;;5084911;27;45546;-72
2023/06/17 13:25:16;;;;;;;;;14.75;14.25;;;;;;;;5084884;27;45434;-72
2023/06/17 13:27:41;;;;;;;;;15.25;14.00;;;;;;;;5089589;27;45441;-72
2023/06/17 13:30:07;;;;;;;;;16.33;16.00;;;;;;;;5084113;27;45476;-72
2023/06/17 13:32:32;;;;;;;;;15.00;13.75;;;;;;;;5090940;27;45420;-72
2023/06/17 13:34:57;;;;;;;;;15.75;14.50;;;;;;;;5082517;27;45336;-71
2023/06/17 13:37:22;;;;;;;;;15.67;15.00;;;;;;;;5086539;27;45265;-72
2023/06/17 13:39:48;;;;;;;;;15.67;15.33;;;;;;;;5089230;27;45550;-72
2023/06/17 13:42:13;;;;;;;;;15.67;15.67;;;;;;;;5091234;27;45383;-72
2023/06/17 13:44:38;;;;;;;;;19.00;18.00;;;;;;;;5087455;27;45396;-72
2023/06/17 13:47:04;;;;;;;;;12.00;12.00;;;;;;;;5094068;27;45466;-71
2023/06/17 13:49:31;;;;;;;;;14.50;13.50;;;;;;;;5088041;27;45385;-72
2023/06/17 13:51:56;;;;;;;;;14.00;13.50;;;;;;;;5088853;27;45442;-72
2023/06/17 13:54:22;;;;;;;;;12.50;12.50;;;;;;;;5093555;27;45432;-71
2023/06/17 13:56:48;;;;;;;;;11.00;10.75;;;;;;;;5080062;27;46054;-71
2023/06/17 13:59:13;;;;;;;;;15.25;15.25;;;;;;;;5082991;27;47130;-71
2023/06/17 14:01:39;;;;;;;;;13.50;12.50;;;;;;;;5094904;27;45424;-72
2023/06/17 14:04:04;;;;;;;;;15.75;13.00;;;;;;;;5086050;27;45237;-71
2023/06/17 14:06:31;;;;;;;;;14.00;13.75;;;;;;;;5086880;27;45395;-72
2023/06/17 14:08:56;;;;;;;;;14.00;13.25;;;;;;;;5095338;27;47110;-72
2023/06/17 14:11:22;;;;;;;;;13.50;12.75;;;;;;;;5092645;27;45481;-71